Time;durP1;ratioP1;P1;durP2;ratioP2;P2;SDS_P1;SDS_P2;PMS_P1;PMS_P2;Temp;Humidity;BMP_temperature;BMP_pressure;BME280_temperature;BME280_humidity;BME280_pressure;Samples;Min_cycle;Max_cycle;Signal;HPM_P1;HPM_P2
2023/05/26 00:05:01;;;;;;;6.25;4.40;;;14.00;99.90;;;;;;10212732;29;20641;-93
2023/05/26 00:10:04;;;;;;;11.73;4.90;;;13.90;99.90;;;;;;10213620;29;20258;-94
2023/05/26 00:15:07;;;;;;;12.18;5.10;;;13.80;99.90;;;;;;10213302;29;20211;-93
2023/05/26 00:20:10;;;;;;;9.50;3.50;;;13.50;99.90;;;;;;10212805;29;20231;-94
2023/05/26 00:25:13;;;;;;;12.45;4.18;;;13.50;99.90;;;;;;10211921;28;20286;-93
2023/05/26 00:30:16;;;;;;;6.82;4.18;;;13.50;99.90;;;;;;10212762;29;20215;-94
2023/05/26 00:35:19;;;;;;;8.38;3.90;;;13.60;99.90;;;;;;10196346;29;20239;-93
2023/05/26 00:40:22;;;;;;;7.00;4.00;;;13.50;99.90;;;;;;10195254;29;20247;-94
2023/05/26 00:45:24;;;;;;;7.85;4.22;;;13.40;99.90;;;;;;10194884;29;20215;-95
2023/05/26 00:50:27;;;;;;;11.93;4.67;;;;;;;;;;10194597;29;20269;-93
2023/05/26 00:55:30;;;;;;;7.05;4.20;;;13.30;99.90;;;;;;10212158;29;20566;-92
2023/05/26 01:00:33;;;;;;;11.60;4.40;;;13.30;99.90;;;;;;10212179;29;20624;-93
2023/05/26 01:05:36;;;;;;;4.57;3.53;;;13.30;99.90;;;;;;10194738;29;20755;-94
2023/05/26 01:10:39;;;;;;;7.88;4.30;;;13.20;99.90;;;;;;10212183;29;20207;-93
2023/05/26 01:16:02;;;;;;;8.45;4.97;;;13.10;99.90;;;;;;10194606;29;20211;-93
2023/05/26 01:21:08;;;;;;;10.05;4.63;;;12.90;99.90;;;;;;10211718;29;20219;-94
2023/05/26 01:26:23;;;;;;;10.20;4.10;;;12.70;99.90;;;;;;10193643;29;20215;-94
2023/05/26 01:31:26;;;;;;;6.13;3.78;;;12.70;99.90;;;;;;10194084;29;20266;-93
2023/05/26 01:36:29;;;;;;;8.43;4.50;;;12.60;99.90;;;;;;10210679;29;20234;-93
2023/05/26 01:41:38;;;;;;;7.70;4.17;;;;;;;;;;10217329;29;20230;-94
2023/05/26 01:46:48;;;;;;;8.07;3.60;;;11.80;99.90;;;;;;10201693;29;20556;-94
2023/05/26 01:52:07;;;;;;;7.53;4.25;;;11.50;99.90;;;;;;10200431;29;20219;-94
2023/05/26 01:57:11;;;;;;;12.07;5.67;;;11.50;99.90;;;;;;10200861;29;20218;-93
2023/05/26 02:02:14;;;;;;;9.68;5.10;;;11.20;99.90;;;;;;10200075;29;20298;-94
2023/05/26 02:07:18;;;;;;;14.48;5.45;;;11.00;99.90;;;;;;10200185;29;20215;-93
2023/05/26 02:12:21;;;;;;;8.98;4.75;;;10.80;99.90;;;;;;10170387;29;20207;-93
2023/05/26 02:17:24;;;;;;;16.67;5.80;;;10.70;99.90;;;;;;10200089;29;20755;-94
2023/05/26 02:22:27;;;;;;;9.63;4.50;;;10.40;99.90;;;;;;10199421;29;20239;-94
2023/05/26 02:27:30;;;;;;;12.38;4.00;;;10.30;99.90;;;;;;10216970;29;20270;-94
2023/05/26 02:32:34;;;;;;;12.98;4.20;;;10.00;99.90;;;;;;10199249;29;20231;-93
2023/05/26 02:37:37;;;;;;;12.18;4.90;;;10.10;99.90;;;;;;10216655;29;20627;-93
2023/05/26 02:42:41;;;;;;;8.57;4.65;;;10.40;99.90;;;;;;10199083;29;20235;-94
2023/05/26 02:47:44;;;;;;;12.02;5.95;;;10.40;99.90;;;;;;10199217;29;20262;-94
2023/05/26 02:52:46;;;;;;;12.43;5.33;;;10.50;99.90;;;;;;10215724;29;20218;-94
2023/05/26 02:57:49;;;;;;;13.77;6.15;;;10.70;99.90;;;;;;10214533;29;20215;-93
2023/05/26 03:02:52;;;;;;;12.88;4.50;;;10.80;99.90;;;;;;10198210;29;20286;-94
2023/05/26 03:07:55;;;;;;;11.70;4.97;;;10.90;99.90;;;;;;10197730;29;20240;-94
2023/05/26 03:12:57;;;;;;;7.97;4.25;;;11.20;99.90;;;;;;10197628;29;20226;-94
2023/05/26 03:18:00;;;;;;;10.82;4.07;;;11.50;99.90;;;;;;10212856;29;20637;-93
2023/05/26 03:23:04;;;;;;;6.07;2.97;;;11.60;99.90;;;;;;10197389;29;20234;-94
2023/05/26 03:28:07;;;;;;;10.77;3.97;;;11.70;99.90;;;;;;10212826;29;20559;-93
2023/05/26 03:33:09;;;;;;;10.48;3.88;;;11.70;99.90;;;;;;10196672;29;20649;-94
2023/05/26 03:38:12;;;;;;;9.70;4.17;;;11.80;99.90;;;;;;10212369;29;20562;-95
2023/05/26 03:43:17;;;;;;;8.50;3.58;;;11.90;99.90;;;;;;10212563;29;20231;-94
2023/05/26 03:48:21;;;;;;;10.07;4.20;;;11.80;99.90;;;;;;10212042;29;20208;-93
2023/05/26 03:53:24;;;;;;;8.88;3.63;;;11.80;99.90;;;;;;10196359;29;20218;-94
2023/05/26 03:58:27;;;;;;;12.48;4.55;;;12.00;99.90;;;;;;10196883;29;20236;-93
2023/05/26 04:03:31;;;;;;;13.18;4.63;;;12.20;99.90;;;;;;10211638;29;20282;-95
2023/05/26 04:08:34;;;;;;;9.25;4.22;;;12.30;99.90;;;;;;10196067;29;20582;-93
2023/05/26 04:13:40;;;;;;;9.05;5.07;;;12.30;99.90;;;;;;10213074;29;20570;-93
2023/05/26 04:18:42;;;;;;;13.45;5.22;;;12.40;99.90;;;;;;10195378;29;20271;-93
2023/05/26 04:23:51;;;;;;;4.15;2.85;;;12.60;99.90;;;;;;10212470;29;20235;-92
2023/05/26 04:28:56;;;;;;;16.17;4.40;;;12.60;99.90;;;;;;10210902;29;20211;-93
2023/05/26 04:34:23;;;;;;;8.65;3.85;;;12.80;99.90;;;;;;10211908;29;20239;-94
2023/05/26 04:39:37;;;;;;;13.13;3.80;;;12.80;99.90;;;;;;10210557;29;20226;-94
2023/05/26 04:44:43;;;;;;;11.25;4.97;;;13.10;99.90;;;;;;10194942;29;20270;-93
2023/05/26 04:49:46;;;;;;;12.77;4.83;;;13.30;99.90;;;;;;10194489;29;20243;-93
2023/05/26 04:54:49;;;;;;;12.40;4.20;;;13.20;99.90;;;;;;10211908;29;20576;-93
2023/05/26 04:59:53;;;;;;;12.37;4.13;;;12.70;99.90;;;;;;10194342;29;20211;-93
2023/05/26 05:04:56;;;;;;;11.67;4.80;;;12.70;99.90;;;;;;10211343;29;20207;-94
2023/05/26 05:09:58;;;;;;;8.03;3.67;;;12.70;99.90;;;;;;10139820;29;20208;-92
2023/05/26 05:15:04;;;;;;;24.83;5.33;;;12.80;99.90;;;;;;10122363;29;20628;-93
2023/05/26 05:20:09;;;;;;;8.90;3.73;;;12.80;99.90;;;;;;10139354;29;20598;-92
2023/05/26 05:25:20;;;;;;;14.70;5.05;;;13.10;99.90;;;;;;10116926;29;20216;-93
2023/05/26 05:30:23;;;;;;;18.43;4.83;;;12.90;99.90;;;;;;10124076;29;20350;-93
2023/05/26 05:35:26;;;;;;;14.53;3.90;;;12.90;99.90;;;;;;10123684;29;20328;-93
2023/05/26 05:40:29;;;;;;;16.40;4.20;;;12.90;99.90;;;;;;10154371;29;20228;-93
2023/05/26 05:45:31;;;;;;;17.27;4.30;;;12.90;99.90;;;;;;10140674;29;20269;-92
2023/05/26 05:50:43;;;;;;;10.53;3.60;;;13.00;99.90;;;;;;10140088;29;20204;-92
2023/05/26 05:55:47;;;;;;;24.63;5.53;;;13.30;99.90;;;;;;10138212;29;20212;-94
2023/05/26 06:00:50;;;;;;;9.53;3.17;;;13.30;99.90;;;;;;10153958;29;20287;-93
2023/05/26 06:05:53;;;;;;;10.43;3.92;;;13.50;99.90;;;;;;10138319;29;20224;-94
2023/05/26 06:10:55;;;;;;;11.97;3.90;;;13.50;99.90;;;;;;10138920;29;20288;-93
2023/05/26 06:15:59;;;;;;;11.30;4.30;;;13.50;99.90;;;;;;10137825;29;20212;-93
2023/05/26 06:21:03;;;;;;;10.77;4.80;;;13.40;99.90;;;;;;10137551;29;20605;-94
2023/05/26 06:26:06;;;;;;;14.87;4.23;;;13.40;99.40;;;;;;10152049;29;20220;-93
2023/05/26 06:31:09;;;;;;;12.23;3.93;;;13.30;94.80;;;;;;10137571;29;20275;-93
2023/05/26 06:36:16;;;;;;;13.98;4.65;;;13.50;97.20;;;;;;10136965;29;20292;-93
2023/05/26 06:41:20;;;;;;;12.30;4.40;;;13.40;96.50;;;;;;10152466;29;20239;-93
2023/05/26 06:46:24;;;;;;;17.47;4.43;;;13.80;97.90;;;;;;10136737;29;20285;-94
2023/05/26 06:51:26;;;;;;;5.13;2.90;;;13.90;97.00;;;;;;10121219;29;20260;-93
2023/05/26 06:56:31;;;;;;;12.30;3.70;;;;;;;;;;10138346;29;20212;-93
2023/05/26 07:01:34;;;;;;;10.50;3.57;;;;;;;;;;10137067;29;20288;-94
2023/05/26 07:06:37;;;;;;;9.03;3.83;;;;;;;;;;10136749;29;20265;-94
2023/05/26 07:11:55;;;;;;;6.68;3.65;;;;;;;;;;10136168;29;20211;-93
2023/05/26 07:17:15;;;;;;;11.63;3.97;;;15.20;97.90;;;;;;10136125;29;20280;-93
2023/05/26 07:22:23;;;;;;;8.38;3.42;;;;;;;;;;10135033;29;20232;-93
2023/05/26 07:27:43;;;;;;;11.87;4.57;;;;;;;;;;10150882;29;20212;-93
2023/05/26 07:32:47;;;;;;;8.40;3.70;;;15.70;99.90;;;;;;10134278;29;20292;-93
2023/05/26 07:37:51;;;;;;;13.48;3.53;;;15.50;95.30;;;;;;10118187;29;20272;-92
2023/05/26 07:42:53;;;;;;;9.33;3.27;;;15.80;93.20;;;;;;10136168;29;20229;-93
2023/05/26 07:47:56;;;;;;;10.77;3.47;;;15.60;92.00;;;;;;10119310;29;20208;-93
2023/05/26 07:52:58;;;;;;;9.03;3.60;;;15.30;91.30;;;;;;10135122;29;20213;-94
2023/05/26 07:58:01;;;;;;;10.97;3.17;;;15.60;94.20;;;;;;10134203;29;20216;-93
2023/05/26 08:03:04;;;;;;;8.03;3.20;;;;;;;;;;10135103;29;20596;-92
2023/05/26 08:08:07;;;;;;;5.27;2.93;;;16.30;93.70;;;;;;10134044;29;20589;-92
2023/05/26 08:13:10;;;;;;;12.97;3.10;;;16.40;94.70;;;;;;10134912;29;20237;-93
2023/05/26 08:18:15;;;;;;;7.93;3.13;;;;;;;;;;10135075;29;20268;-93
2023/05/26 08:23:19;;;;;;;5.67;2.67;;;16.70;90.20;;;;;;10133612;29;20605;-93
2023/05/26 08:28:21;;;;;;;13.15;3.70;;;16.80;79.10;;;;;;10118118;29;20204;-93
2023/05/26 08:33:24;;;;;;;8.60;3.00;;;16.70;59.90;;;;;;10134100;29;20227;-94
2023/05/26 08:38:27;;;;;;;12.10;3.42;;;16.90;71.50;;;;;;10133553;29;20224;-94
2023/05/26 08:43:45;;;;;;;11.93;3.85;;;17.00;75.60;;;;;;10132927;29;20225;-95
2023/05/26 08:48:57;;;;;;;10.65;3.95;;;17.40;71.10;;;;;;10133210;29;20272;-92
2023/05/26 08:54:01;;;;;;;12.93;3.73;;;17.20;76.40;;;;;;10133757;29;20556;-94
2023/05/26 08:59:08;;;;;;;7.83;3.87;;;17.30;68.70;;;;;;10133822;29;20245;-93
2023/05/26 09:04:12;;;;;;;7.90;2.63;;;17.80;79.30;;;;;;10133649;29;20276;-94
2023/05/26 09:09:18;;;;;;;7.20;3.05;;;17.90;77.00;;;;;;10133596;29;20354;-94
2023/05/26 09:14:22;;;;;;;9.10;3.50;;;17.60;66.70;;;;;;10133680;29;20213;-93
2023/05/26 09:19:26;;;;;;;14.43;3.97;;;17.50;58.00;;;;;;10133292;29;20217;-93
2023/05/26 09:24:28;;;;;;;6.53;2.78;;;17.70;58.10;;;;;;10132055;29;20652;-94
2023/05/26 09:29:31;;;;;;;8.63;3.03;;;17.60;68.40;;;;;;10133320;29;20225;-94
2023/05/26 09:34:33;;;;;;;17.83;4.30;;;17.60;56.00;;;;;;10133207;29;20240;-94
2023/05/26 09:39:36;;;;;;;10.18;3.65;;;17.70;69.90;;;;;;10133173;29;20261;-92
2023/05/26 09:44:39;;;;;;;7.33;2.87;;;18.00;59.30;;;;;;10132421;29;20261;-92
2023/05/26 09:49:41;;;;;;;10.30;2.90;;;17.90;61.60;;;;;;10131825;29;20284;-94
2023/05/26 09:54:44;;;;;;;9.10;2.92;;;17.90;56.30;;;;;;10132868;29;20217;-93
2023/05/26 09:59:50;;;;;;;5.65;2.67;;;18.20;78.70;;;;;;10134660;29;20289;-94
2023/05/26 10:04:54;;;;;;;13.27;3.42;;;;;;;;;;10122887;29;20281;-94
2023/05/26 10:10:01;;;;;;;5.38;2.40;;;18.70;52.50;;;;;;10138374;29;20225;-94
2023/05/26 10:15:04;;;;;;;7.35;3.00;;;18.60;70.60;;;;;;10139736;29;20212;-92
2023/05/26 10:20:08;;;;;;;12.48;2.88;;;18.90;76.70;;;;;;10139150;29;20256;-93
2023/05/26 10:25:55;;;;;;;9.60;3.08;;;18.90;66.00;;;;;;10138687;29;20229;-93
2023/05/26 10:31:02;;;;;;;14.30;3.93;;;19.10;55.00;;;;;;10138443;29;20562;-93
2023/05/26 10:36:13;;;;;;;8.05;3.10;;;18.90;34.60;;;;;;10121504;29;20291;-93
2023/05/26 10:41:36;;;;;;;13.38;3.33;;;18.70;56.10;;;;;;10138024;29;20220;-93
2023/05/26 10:46:45;;;;;;;10.85;3.28;;;18.90;36.60;;;;;;10137843;29;20212;-93
2023/05/26 10:51:55;;;;;;;13.63;3.42;;;18.80;40.30;;;;;;10138040;29;20577;-94
2023/05/26 10:56:57;;;;;;;8.75;3.00;;;18.80;33.20;;;;;;10137918;29;20216;-94
2023/05/26 11:02:04;;;;;;;8.98;3.60;;;18.90;37.90;;;;;;10137416;29;20232;-92
2023/05/26 11:07:22;;;;;;;8.02;3.05;;;19.10;40.50;;;;;;10120891;29;20535;-94
2023/05/26 11:12:25;;;;;;;7.25;2.28;;;19.20;41.20;;;;;;10137258;29;20272;-94
2023/05/26 11:17:28;;;;;;;8.63;2.83;;;19.30;59.50;;;;;;10135983;29;20216;-94
2023/05/26 11:22:31;;;;;;;8.18;4.03;;;19.20;27.80;;;;;;10137121;29;20648;-93
2023/05/26 11:27:33;;;;;;;3.40;2.20;;;19.60;60.70;;;;;;10136918;29;20212;-93
2023/05/26 11:32:42;;;;;;;12.07;3.92;;;19.70;59.40;;;;;;10136823;29;20228;-92
2023/05/26 11:37:45;;;;;;;7.97;2.17;;;19.60;34.80;;;;;;10136770;29;20224;-93
2023/05/26 11:42:55;;;;;;;5.80;2.40;;;19.70;36.30;;;;;;10136079;29;20652;-93
2023/05/26 11:47:58;;;;;;;3.80;2.15;;;19.70;36.20;;;;;;10134477;29;20217;-92
2023/05/26 11:53:01;;;;;;;2.42;2.22;;;19.90;55.30;;;;;;10135704;29;20272;-93
2023/05/26 11:58:04;;;;;;;10.82;2.83;;;19.90;46.70;;;;;;10135220;29;20216;-94
2023/05/26 12:03:17;;;;;;;3.08;1.88;;;19.80;25.20;;;;;;10135263;29;20300;-92
2023/05/26 12:08:20;;;;;;;9.23;2.87;;;20.00;57.60;;;;;;10134731;29;20240;-93
2023/05/26 12:13:29;;;;;;;11.77;3.53;;;19.90;30.00;;;;;;10134697;29;20221;-93
2023/05/26 12:18:32;;;;;;;4.70;2.63;;;19.90;27.10;;;;;;10134631;29;20554;-93
2023/05/26 12:23:35;;;;;;;8.68;3.08;;;20.10;39.40;;;;;;10134063;29;20232;-92
2023/05/26 12:28:40;;;;;;;8.15;2.95;;;20.10;24.40;;;;;;10134425;29;20213;-92
2023/05/26 12:33:43;;;;;;;8.77;2.40;;;20.00;20.50;;;;;;10133764;29;20236;-94
2023/05/26 12:38:45;;;;;;;9.82;3.55;;;20.10;23.40;;;;;;10134216;29;20216;-93
2023/05/26 12:43:48;;;;;;;3.90;2.63;;;20.30;47.70;;;;;;10133686;29;20659;-93
2023/05/26 12:48:51;;;;;;;3.83;3.10;;;20.30;42.50;;;;;;10134074;29;20263;-93
2023/05/26 12:53:56;;;;;;;5.15;2.35;;;20.40;47.30;;;;;;10133335;29;20224;-93
2023/05/26 12:58:58;;;;;;;26.95;3.25;;;20.40;39.80;;;;;;10133909;29;20208;-92
2023/05/26 13:04:11;;;;;;;8.45;3.00;;;20.30;22.90;;;;;;10116499;29;20280;-92
2023/05/26 13:09:14;;;;;;;5.57;2.25;;;20.50;24.60;;;;;;10133365;29;20204;-93
2023/05/26 13:14:18;;;;;;;10.32;3.20;;;20.60;27.40;;;;;;10133066;29;20627;-93
2023/05/26 13:19:21;;;;;;;5.68;2.60;;;20.50;25.00;;;;;;10116540;29;20212;-93
2023/05/26 13:24:24;;;;;;;15.02;3.97;;;20.60;25.20;;;;;;10116597;29;20291;-92
2023/05/26 13:29:26;;;;;;;5.82;2.83;;;20.50;19.20;;;;;;10133056;29;20213;-93
2023/05/26 13:34:29;;;;;;;3.35;1.70;;;20.80;33.90;;;;;;10136132;29;20364;-93
2023/05/26 13:39:32;;;;;;;7.03;2.75;;;20.80;35.80;;;;;;10139038;29;20690;-93
2023/05/26 13:44:34;;;;;;;8.52;2.72;;;20.70;27.50;;;;;;10140364;29;20240;-93
2023/05/26 13:49:37;;;;;;;5.65;2.63;;;20.70;23.80;;;;;;10140394;29;20212;-92
2023/05/26 13:54:39;;;;;;;9.57;3.63;;;20.80;31.80;;;;;;10139606;29;20216;-93
2023/05/26 13:59:42;;;;;;;7.00;2.40;;;20.70;24.50;;;;;;10139919;29;20216;-92
2023/05/26 14:04:45;;;;;;;11.18;3.40;;;20.80;29.20;;;;;;10139435;29;20232;-93
2023/05/26 14:09:47;;;;;;;7.68;3.08;;;20.80;23.30;;;;;;10122436;29;20631;-92
2023/05/26 14:14:50;;;;;;;6.63;2.72;;;20.80;27.10;;;;;;10139386;29;20546;-93
2023/05/26 14:19:53;;;;;;;11.80;2.92;;;20.80;27.70;;;;;;10138076;29;20257;-91
2023/05/26 14:25:09;;;;;;;4.72;2.78;;;20.70;23.30;;;;;;10137097;29;20231;-92
2023/05/26 14:30:12;;;;;;;11.57;3.40;;;20.70;24.70;;;;;;10138656;29;20615;-92
2023/05/26 14:35:15;;;;;;;8.50;2.63;;;20.70;23.40;;;;;;10138253;29;20288;-93
2023/05/26 14:40:18;;;;;;;7.65;3.17;;;20.80;24.00;;;;;;10137072;29;20224;-93
2023/05/26 14:45:20;;;;;;;6.95;3.05;;;20.70;24.00;;;;;;10136461;29;20610;-93
2023/05/26 14:50:23;;;;;;;7.05;2.83;;;20.80;24.60;;;;;;10138097;29;20275;-93
2023/05/26 14:55:25;;;;;;;11.07;3.50;;;20.90;27.70;;;;;;10120063;29;20220;-92
2023/05/26 15:00:30;;;;;;;8.73;3.38;;;20.60;20.20;;;;;;10136632;29;20261;-93
2023/05/26 15:05:33;;;;;;;10.13;2.42;;;20.60;24.20;;;;;;10120372;29;20288;-94
2023/05/26 15:10:36;;;;;;;10.15;2.97;;;20.70;26.50;;;;;;10137023;29;20216;-92
2023/05/26 15:15:39;;;;;;;10.32;3.05;;;20.60;24.00;;;;;;10136652;29;20766;-92
2023/05/26 15:20:41;;;;;;;6.85;2.78;;;20.60;20.90;;;;;;10136683;29;20208;-93
2023/05/26 15:25:53;;;;;;;12.90;3.92;;;20.60;26.00;;;;;;10119723;29;20606;-92
2023/05/26 15:30:56;;;;;;;6.70;3.08;;;20.60;22.10;;;;;;10134862;29;20216;-92
2023/05/26 15:35:58;;;;;;;19.40;4.00;;;20.50;29.70;;;;;;10135959;29;20236;-93
2023/05/26 15:41:01;;;;;;;13.48;3.50;;;20.40;21.30;;;;;;10119096;29;20217;-93
2023/05/26 15:46:04;;;;;;;12.07;3.65;;;20.30;22.10;;;;;;10135896;29;20232;-92
2023/05/26 15:51:06;;;;;;;7.10;2.92;;;20.40;29.60;;;;;;10136099;29;20212;-92
2023/05/26 15:56:09;;;;;;;11.32;4.40;;;20.40;26.20;;;;;;10135219;29;20208;-93
2023/05/26 16:01:12;;;;;;;8.95;3.45;;;20.30;20.40;;;;;;10135541;29;20216;-93
2023/05/26 16:06:16;;;;;;;9.70;3.67;;;20.10;21.60;;;;;;10135185;29;20754;-93
2023/05/26 16:11:19;;;;;;;13.15;3.58;;;19.90;19.80;;;;;;10118226;29;20212;-93
2023/05/26 16:16:21;;;;;;;6.72;3.30;;;19.70;19.30;;;;;;10134202;29;20591;-92
2023/05/26 16:21:24;;;;;;;12.95;3.60;;;19.70;21.70;;;;;;10132915;29;20278;-92
2023/05/26 16:26:27;;;;;;;12.75;4.55;;;19.60;22.70;;;;;;10134138;29;20240;-93
2023/05/26 16:31:29;;;;;;;14.02;3.35;;;19.60;20.10;;;;;;10134282;29;20236;-93
2023/05/26 16:36:32;;;;;;;9.43;3.22;;;19.70;21.70;;;;;;10134092;29;20232;-92
2023/05/26 16:41:34;;;;;;;6.75;2.88;;;19.80;26.70;;;;;;10134169;29;20288;-93
2023/05/26 16:46:37;;;;;;;8.32;2.95;;;19.70;27.70;;;;;;10132672;29;20228;-92
2023/05/26 16:51:40;;;;;;;12.35;3.17;;;19.70;27.40;;;;;;10132758;29;20229;-93
2023/05/26 16:56:43;;;;;;;16.55;3.58;;;19.70;22.70;;;;;;10116930;29;20212;-93
2023/05/26 17:01:45;;;;;;;11.63;3.58;;;19.60;21.20;;;;;;10133684;29;20217;-93
2023/05/26 17:06:48;;;;;;;4.78;2.55;;;19.50;23.10;;;;;;10131698;29;20577;-93
2023/05/26 17:11:50;;;;;;;13.43;3.75;;;19.50;27.30;;;;;;10140468;29;20269;-91
2023/05/26 17:16:53;;;;;;;9.57;3.20;;;19.40;17.90;;;;;;10140609;29;20577;-93
2023/05/26 17:21:56;;;;;;;8.00;2.85;;;19.00;21.70;;;;;;10141207;29;20212;-94
2023/05/26 17:26:59;;;;;;;9.70;3.20;;;19.00;29.40;;;;;;10140747;29;20240;-93
2023/05/26 17:32:02;;;;;;;8.30;2.55;;;18.90;24.60;;;;;;10140424;29;20205;-93
2023/05/26 17:37:04;;;;;;;14.10;3.67;;;18.50;23.10;;;;;;10140808;29;20212;-94
2023/05/26 17:42:07;;;;;;;8.13;3.22;;;18.30;20.20;;;;;;10140590;29;20204;-93
2023/05/26 17:47:10;;;;;;;13.18;3.75;;;18.30;28.20;;;;;;10139739;29;20237;-94
2023/05/26 17:52:13;;;;;;;9.63;3.33;;;18.10;27.00;;;;;;10138857;29;20264;-94
2023/05/26 17:57:15;;;;;;;21.42;4.57;;;18.00;28.20;;;;;;10139544;29;20212;-93
2023/05/26 18:02:18;;;;;;;11.55;3.05;;;17.80;25.80;;;;;;10139265;29;20256;-94
2023/05/26 18:07:20;;;;;;;12.20;3.75;;;17.70;27.20;;;;;;10137760;29;20264;-94
2023/05/26 18:12:23;;;;;;;6.22;3.35;;;17.40;25.20;;;;;;10140009;29;20749;-95
2023/05/26 18:17:29;;;;;;;10.00;4.43;;;17.30;29.50;;;;;;10139120;29;20208;-94
2023/05/26 18:22:33;;;;;;;6.97;3.63;;;17.10;24.90;;;;;;10137217;29;20212;-95
2023/05/26 18:27:36;;;;;;;6.40;3.10;;;17.10;37.90;;;;;;10138870;29;20264;-94
2023/05/26 18:32:38;;;;;;;8.73;3.25;;;16.90;36.90;;;;;;10137699;29;20577;-94
2023/05/26 18:37:41;;;;;;;17.13;4.90;;;16.80;40.30;;;;;;10138336;29;20221;-94
2023/05/26 18:42:44;;;;;;;85.32;42.53;;;16.40;28.90;;;;;;10138198;29;20631;-96
2023/05/26 18:47:47;;;;;;;23.63;13.60;;;16.40;39.40;;;;;;10137450;29;20697;-95
2023/05/26 18:52:49;;;;;;;24.00;9.05;;;16.10;35.40;;;;;;10138560;29;20217;-94
2023/05/26 18:57:52;;;;;;;12.35;5.35;;;16.10;38.30;;;;;;10122124;29;20262;-94
2023/05/26 19:02:55;;;;;;;10.15;4.22;;;16.00;50.50;;;;;;10138371;29;20216;-94
2023/05/26 19:07:57;;;;;;;12.45;5.65;;;15.80;45.20;;;;;;10138036;29;20236;-94
2023/05/26 19:13:00;;;;;;;13.93;5.53;;;15.60;40.60;;;;;;10121642;29;20260;-94
2023/05/26 19:18:03;;;;;;;20.85;6.93;;;15.30;45.70;;;;;;10137633;29;20560;-94
2023/05/26 19:23:05;;;;;;;15.98;6.53;;;15.20;47.10;;;;;;10136953;29;20343;-94
2023/05/26 19:28:09;;;;;;;9.88;4.50;;;14.90;47.60;;;;;;10136811;29;20236;-94
2023/05/26 19:33:13;;;;;;;19.92;9.88;;;14.80;59.40;;;;;;10136527;29;20224;-95
2023/05/26 19:38:16;;;;;;;8.93;5.03;;;14.80;47.50;;;;;;10136180;29;20221;-94
2023/05/26 19:43:18;;;;;;;13.43;5.97;;;14.90;65.50;;;;;;10135958;29;20212;-95
2023/05/26 19:48:21;;;;;;;14.00;7.22;;;14.70;63.30;;;;;;10135955;29;20261;-95
2023/05/26 19:53:25;;;;;;;21.13;7.00;;;;;;;;;;10135719;29;20276;-94
2023/05/26 19:58:27;;;;;;;13.95;6.00;;;14.30;61.50;;;;;;10135631;29;20241;-94
2023/05/26 20:03:30;;;;;;;13.70;4.68;;;14.10;64.00;;;;;;10133720;29;20213;-94
2023/05/26 20:08:33;;;;;;;18.95;9.68;;;14.00;76.50;;;;;;10135042;29;20251;-95
2023/05/26 20:13:35;;;;;;;22.52;8.43;;;14.10;81.80;;;;;;10118124;29;20205;-94
2023/05/26 20:18:38;;;;;;;32.22;11.68;;;14.00;72.90;;;;;;10134352;29;20548;-94
2023/05/26 20:23:40;;;;;;;35.53;14.05;;;14.00;88.40;;;;;;10134347;29;20249;-94
2023/05/26 20:28:47;;;;;;;24.33;8.35;;;13.80;87.30;;;;;;10133943;29;20213;-94
2023/05/26 20:33:50;;;;;;;20.27;10.57;;;13.60;76.20;;;;;;10117794;29;20296;-94
2023/05/26 20:38:53;;;;;;;22.88;12.48;;;13.60;85.50;;;;;;10116788;29;20220;-94
2023/05/26 20:43:55;;;;;;;30.10;17.90;;;13.30;74.90;;;;;;10133244;29;20284;-94
2023/05/26 20:48:58;;;;;;;17.83;9.35;;;13.30;85.80;;;;;;10133625;29;20208;-94
2023/05/26 20:54:01;;;;;;;34.70;19.63;;;13.20;90.10;;;;;;10132902;29;20744;-94
2023/05/26 20:59:03;;;;;;;12.82;8.32;;;13.20;91.40;;;;;;10134095;29;20264;-95
2023/05/26 21:04:06;;;;;;;15.23;7.35;;;13.20;94.30;;;;;;10116641;29;20225;-94
2023/05/26 21:09:08;;;;;;;18.38;7.40;;;13.20;93.00;;;;;;10133840;29;20249;-94
2023/05/26 21:14:11;;;;;;;19.48;9.10;;;13.20;94.20;;;;;;10132511;29;20252;-95
2023/05/26 21:19:13;;;;;;;19.52;9.52;;;13.00;93.20;;;;;;10117067;29;20216;-94
2023/05/26 21:24:16;;;;;;;20.20;8.40;;;12.90;94.50;;;;;;10132098;29;20296;-93
2023/05/26 21:29:19;;;;;;;18.77;10.27;;;12.80;91.80;;;;;;10133191;29;20213;-93
2023/05/26 21:34:21;;;;;;;14.17;6.73;;;12.80;95.60;;;;;;10133347;29;20236;-94
2023/05/26 21:39:25;;;;;;;18.00;9.27;;;12.80;95.70;;;;;;10116156;29;20240;-94
2023/05/26 21:44:27;;;;;;;16.53;8.93;;;12.80;97.30;;;;;;10116239;29;20232;-94
2023/05/26 21:49:30;;;;;;;14.75;6.78;;;12.70;97.30;;;;;;10132493;29;20213;-94
2023/05/26 21:54:32;;;;;;;11.02;6.60;;;12.50;97.70;;;;;;10133133;29;20262;-94
2023/05/26 21:59:35;;;;;;;18.47;8.20;;;12.40;96.30;;;;;;10140172;29;20628;-94
2023/05/26 22:04:38;;;;;;;14.70;7.15;;;;;;;;;;10139821;29;20280;-95
2023/05/26 22:09:42;;;;;;;16.38;6.38;;;12.20;98.10;;;;;;10139679;29;20212;-94
2023/05/26 22:14:44;;;;;;;19.48;8.40;;;12.00;96.40;;;;;;10139572;29;20208;-94
2023/05/26 22:19:47;;;;;;;16.20;6.93;;;12.00;98.50;;;;;;10138058;29;20288;-94
2023/05/26 22:24:50;;;;;;;17.40;7.60;;;12.00;99.50;;;;;;10138948;29;20253;-94
2023/05/26 22:29:52;;;;;;;24.30;11.43;;;12.00;99.80;;;;;;10138497;29;20749;-95
2023/05/26 22:34:55;;;;;;;18.52;8.27;;;12.00;99.70;;;;;;10121541;29;20240;-94
2023/05/26 22:39:58;;;;;;;14.13;6.35;;;11.70;99.30;;;;;;10137367;29;20565;-94
2023/05/26 22:45:01;;;;;;;12.20;6.93;;;11.60;99.90;;;;;;10137096;29;20590;-95
2023/05/26 22:50:04;;;;;;;9.43;4.30;;;;;;;;;;10138102;29;20280;-94
2023/05/26 22:55:07;;;;;;;12.77;4.37;;;11.00;99.90;;;;;;10136558;29;20635;-94
2023/05/26 23:00:10;;;;;;;13.47;4.27;;;11.70;99.90;;;;;;10121261;29;20212;-94
2023/05/26 23:05:13;;;;;;;11.83;4.43;;;10.80;99.90;;;;;;10137652;29;20228;-94
2023/05/26 23:10:16;;;;;;;9.97;4.63;;;;;;;;;;10136981;29;20216;-94
2023/05/26 23:15:20;;;;;;;11.30;4.67;;;10.30;99.90;;;;;;10137379;29;20269;-94
2023/05/26 23:20:23;;;;;;;14.93;4.47;;;10.30;99.90;;;;;;10120160;29;20613;-94
2023/05/26 23:25:27;;;;;;;25.53;5.37;;;;;;;;;;10136864;29;20323;-95
2023/05/26 23:30:30;;;;;;;10.67;3.93;;;9.50;99.90;;;;;;10135406;29;20212;-94
2023/05/26 23:35:33;;;;;;;13.20;3.57;;;9.60;99.90;;;;;;10119150;29;20828;-94
2023/05/26 23:40:36;;;;;;;9.23;4.33;;;9.30;99.90;;;;;;10135896;29;20217;-94
2023/05/26 23:45:38;;;;;;;13.07;4.90;;;9.30;99.90;;;;;;10136304;29;20236;-94
2023/05/26 23:50:41;;;;;;;12.87;5.10;;;9.30;99.90;;;;;;10135529;29;20245;-94
2023/05/26 23:55:44;;;;;;;12.47;3.80;;;9.10;99.90;;;;;;10134641;29;20208;-94
